createdAt,value
2019-05-23T00:00:07.664Z,4.00
2019-05-23T00:02:52.821Z,3.90
2019-05-23T00:05:38.548Z,3.60
2019-05-23T00:08:18.987Z,3.87
2019-05-23T00:10:56.531Z,3.50
2019-05-23T00:13:45.741Z,3.80
2019-05-23T00:16:17.801Z,4.03
2019-05-23T00:18:49.434Z,3.50
2019-05-23T00:21:21.076Z,3.90
2019-05-23T00:23:51.765Z,4.00
2019-05-23T00:26:23.099Z,4.30
2019-05-23T00:29:09.076Z,3.80
2019-05-23T00:31:32.392Z,3.87
2019-05-23T00:34:02.630Z,3.90
2019-05-23T00:36:32.751Z,4.00
2019-05-23T00:39:04.538Z,4.17
2019-05-23T00:41:35.194Z,3.70
2019-05-23T00:44:06.326Z,3.90
2019-05-23T00:46:37.481Z,4.37
2019-05-23T00:49:08.299Z,4.07
2019-05-23T00:51:40.254Z,4.60
2019-05-23T00:54:11.017Z,4.33
2019-05-23T00:56:41.970Z,4.07
2019-05-23T00:59:25.948Z,4.30
2019-05-23T01:01:43.849Z,4.17
2019-05-23T01:04:14.736Z,4.10
2019-05-23T01:06:44.881Z,4.10
2019-05-23T01:09:16.972Z,4.43
2019-05-23T01:11:49.782Z,3.90
2019-05-23T01:14:20.302Z,3.77
2019-05-23T01:16:51.030Z,4.20
2019-05-23T01:19:24.210Z,4.13
2019-05-23T01:22:00.426Z,4.27
2019-05-23T01:24:52.543Z,4.13
2019-05-23T01:27:23.430Z,4.07
2019-05-23T01:29:57.964Z,4.20
2019-05-23T01:32:44.643Z,4.50
2019-05-23T01:35:19.317Z,4.40
2019-05-23T01:37:49.640Z,4.23
2019-05-23T01:40:20.255Z,4.23
2019-05-23T01:42:51.610Z,4.60
2019-05-23T01:45:22.752Z,4.50
2019-05-23T01:47:53.274Z,4.40
2019-05-23T01:50:25.995Z,4.40
2019-05-23T01:52:57.785Z,4.50
2019-05-23T01:55:28.227Z,5.37
2019-05-23T01:58:00.519Z,4.43
2019-05-23T02:00:33.255Z,4.50
2019-05-23T02:03:03.794Z,4.60
2019-05-23T02:05:37.292Z,4.67
2019-05-23T02:08:10.705Z,4.50
2019-05-23T02:10:41.300Z,4.30
2019-05-23T02:13:12.520Z,4.33
2019-05-23T02:15:43.887Z,4.30
2019-05-23T02:18:16.080Z,4.40
2019-05-23T02:20:46.438Z,4.33
2019-05-23T02:23:19.653Z,4.70
2019-05-23T02:25:50.258Z,4.53
2019-05-23T02:28:21.036Z,4.40
2019-05-23T02:30:51.856Z,4.60
2019-05-23T02:33:22.296Z,4.60
2019-05-23T02:35:52.857Z,4.57
2019-05-23T02:38:57.114Z,4.40
2019-05-23T02:41:33.885Z,4.87
2019-05-23T02:44:08.922Z,4.70
2019-05-23T02:46:57.672Z,4.50
2019-05-23T02:49:31.493Z,4.80
2019-05-23T02:52:14.299Z,5.30
2019-05-23T02:54:45.182Z,5.27
2019-05-23T02:57:19.214Z,5.40
2019-05-23T02:59:54.493Z,5.60
2019-05-23T03:03:03.074Z,5.50
2019-05-23T03:05:37.353Z,4.60
2019-05-23T03:08:10.093Z,5.00
2019-05-23T03:10:54.656Z,4.90
2019-05-23T03:13:28.221Z,5.33
2019-05-23T03:16:00.560Z,4.87
2019-05-23T03:18:34.932Z,5.33
2019-05-23T03:21:05.778Z,5.40
2019-05-23T03:23:36.256Z,5.83
2019-05-23T03:26:44.807Z,5.70
2019-05-23T03:29:15.717Z,5.37
2019-05-23T03:32:02.132Z,6.10
2019-05-23T03:34:34.606Z,5.80
2019-05-23T03:37:05.725Z,6.20
2019-05-23T03:39:35.921Z,5.80
2019-05-23T03:42:07.332Z,5.70
2019-05-23T03:44:39.211Z,6.33
2019-05-23T03:47:13.120Z,6.07
2019-05-23T03:49:43.373Z,5.70
2019-05-23T03:52:15.154Z,6.13
2019-05-23T03:54:46.941Z,6.07
2019-05-23T03:57:18.708Z,5.87
2019-05-23T03:59:50.534Z,5.53
2019-05-23T04:02:23.998Z,5.80
2019-05-23T04:04:56.402Z,6.20
2019-05-23T04:07:26.596Z,6.60
2019-05-23T04:09:56.652Z,6.20
2019-05-23T04:12:27.070Z,6.10
2019-05-23T04:14:57.691Z,6.27
2019-05-23T04:17:29.850Z,6.60
2019-05-23T04:20:00.061Z,6.30
2019-05-23T04:22:30.689Z,6.60
2019-05-23T04:25:02.313Z,6.07
2019-05-23T04:27:33.075Z,6.40
2019-05-23T04:30:03.143Z,6.10
2019-05-23T04:32:33.750Z,7.10
2019-05-23T04:35:04.855Z,6.83
2019-05-23T04:37:35.221Z,6.63
2019-05-23T04:40:06.503Z,7.03
2019-05-23T04:42:36.646Z,7.13
2019-05-23T04:45:08.142Z,7.93
2019-05-23T04:47:40.693Z,7.20
2019-05-23T04:50:12.476Z,8.10
2019-05-23T04:52:43.096Z,7.53
2019-05-23T04:55:15.412Z,6.70
2019-05-23T04:57:47.056Z,7.07
2019-05-23T05:00:18.691Z,7.17
2019-05-23T05:02:49.098Z,6.47
2019-05-23T05:05:19.488Z,6.77
2019-05-23T05:07:49.787Z,6.80
2019-05-23T05:10:23.620Z,6.20
2019-05-23T05:12:54.026Z,6.53
2019-05-23T05:15:27.456Z,6.30
2019-05-23T05:17:58.395Z,5.63
2019-05-23T05:20:29.056Z,5.93
2019-05-23T05:23:01.010Z,6.20
2019-05-23T05:25:31.200Z,6.47
2019-05-23T05:28:01.385Z,5.90
2019-05-23T05:30:32.522Z,14.17
2019-05-23T05:33:02.788Z,6.90
2019-05-23T05:35:35.190Z,14.57
2019-05-23T05:38:05.756Z,11.17
2019-05-23T05:40:36.196Z,7.10
2019-05-23T05:43:07.078Z,6.40
2019-05-23T05:45:38.342Z,6.47
2019-05-23T05:48:09.672Z,5.40
2019-05-23T05:50:39.887Z,5.90
2019-05-23T05:53:10.052Z,6.03
2019-05-23T05:55:40.192Z,5.87
2019-05-23T05:58:10.453Z,6.10
2019-05-23T06:00:57.520Z,6.30
2019-05-23T06:03:28.244Z,6.43
2019-05-23T06:06:20.264Z,6.43
2019-05-23T06:08:54.649Z,6.57
2019-05-23T06:11:25.002Z,6.70
2019-05-23T06:13:55.888Z,5.70
2019-05-23T06:16:28.983Z,7.20
2019-05-23T06:18:59.279Z,6.83
2019-05-23T06:21:30.104Z,6.70
2019-05-23T06:24:00.263Z,7.40
2019-05-23T06:26:31.189Z,6.87
2019-05-23T06:29:01.585Z,7.30
2019-05-23T06:31:32.025Z,6.90
2019-05-23T06:34:02.301Z,8.03
2019-05-23T06:36:33.064Z,8.47
2019-05-23T06:39:04.825Z,8.13
2019-05-23T06:41:35.415Z,8.33
2019-05-23T06:44:07.356Z,8.27
2019-05-23T06:46:37.759Z,8.23
2019-05-23T06:49:07.960Z,8.30
2019-05-23T06:51:38.056Z,7.63
2019-05-23T06:54:09.407Z,8.07
2019-05-23T06:56:39.547Z,7.70
2019-05-23T06:59:09.691Z,7.70
2019-05-23T07:01:42.736Z,7.77
2019-05-23T07:04:12.936Z,7.47
2019-05-23T07:06:45.388Z,7.13
2019-05-23T07:09:17.521Z,6.90
2019-05-23T07:11:47.941Z,7.90
2019-05-23T07:14:18.604Z,7.30
2019-05-23T07:16:50.375Z,7.93
2019-05-23T07:19:21.440Z,7.57
2019-05-23T07:21:51.677Z,7.70
2019-05-23T07:24:21.909Z,7.43
2019-05-23T07:26:52.134Z,7.43
2019-05-23T07:29:22.201Z,7.33
2019-05-23T07:31:53.018Z,7.63
2019-05-23T07:34:24.079Z,7.07
2019-05-23T07:36:54.887Z,7.80
2019-05-23T07:39:25.072Z,7.80
2019-05-23T07:41:55.198Z,7.37
2019-05-23T07:44:25.548Z,8.03
2019-05-23T07:46:55.658Z,7.27
2019-05-23T07:49:27.851Z,8.27
2019-05-23T07:51:57.988Z,8.27
2019-05-23T07:54:36.423Z,7.27
2019-05-23T07:57:10.822Z,7.90
2019-05-23T07:59:40.916Z,7.60
2019-05-23T08:02:25.643Z,7.37
2019-05-23T08:04:56.343Z,6.80
2019-05-23T08:07:27.539Z,7.30
2019-05-23T08:09:57.792Z,6.90
2019-05-23T08:12:28.515Z,6.80
2019-05-23T08:14:58.805Z,6.53
2019-05-23T08:17:29.251Z,6.57
2019-05-23T08:19:59.586Z,5.77
2019-05-23T08:22:30.971Z,5.87
2019-05-23T08:25:01.171Z,5.50
2019-05-23T08:27:34.021Z,6.37
2019-05-23T08:30:05.582Z,6.20
2019-05-23T08:32:36.298Z,5.47
2019-05-23T08:35:07.133Z,6.13
2019-05-23T08:37:40.253Z,5.60
2019-05-23T08:40:11.073Z,5.67
2019-05-23T08:42:42.584Z,5.50
2019-05-23T08:45:13.043Z,5.73
2019-05-23T08:47:43.656Z,5.10
2019-05-23T08:50:14.917Z,5.00
2019-05-23T08:52:45.178Z,4.37
2019-05-23T08:55:21.152Z,4.60
2019-05-23T08:57:52.028Z,5.10
2019-05-23T09:00:24.369Z,4.73
2019-05-23T09:02:58.711Z,4.73
2019-05-23T09:05:30.474Z,4.80
2019-05-23T09:08:02.625Z,5.00
2019-05-23T09:10:32.827Z,5.03
2019-05-23T09:13:03.655Z,5.00
2019-05-23T09:15:34.466Z,4.63
2019-05-23T09:18:05.378Z,4.30
2019-05-23T09:20:36.258Z,4.53
2019-05-23T09:23:08.449Z,4.00
2019-05-23T09:25:38.566Z,3.87
2019-05-23T09:28:09.676Z,3.37
2019-05-23T09:30:40.055Z,4.37
2019-05-23T09:33:10.812Z,3.90
2019-05-23T09:35:42.126Z,4.10
2019-05-23T09:38:12.340Z,4.07
2019-05-23T09:40:42.685Z,3.80
2019-05-23T09:43:13.998Z,3.30
2019-05-23T09:45:44.428Z,3.63
2019-05-23T09:48:14.627Z,3.47
2019-05-23T09:50:44.835Z,3.57
2019-05-23T09:53:15.883Z,3.70
2019-05-23T09:55:46.128Z,3.33
2019-05-23T09:58:16.465Z,2.50
2019-05-23T10:00:48.019Z,2.20
2019-05-23T10:03:18.213Z,2.57
2019-05-23T10:05:48.548Z,2.70
2019-05-23T10:08:18.710Z,3.20
2019-05-23T10:10:49.375Z,3.40
2019-05-23T10:13:36.060Z,3.70
2019-05-23T10:16:05.405Z,3.40
2019-05-23T10:18:35.743Z,3.63
2019-05-23T10:21:06.322Z,3.53
2019-05-23T10:23:36.396Z,3.60
2019-05-23T10:26:07.376Z,3.70
2019-05-23T10:28:37.573Z,3.20
2019-05-23T10:31:10.418Z,3.50
2019-05-23T10:33:40.652Z,3.20
2019-05-23T10:36:10.806Z,3.20
2019-05-23T10:38:42.223Z,4.00
2019-05-23T10:41:12.540Z,3.57
2019-05-23T10:43:42.708Z,2.90
2019-05-23T10:46:12.840Z,2.77
2019-05-23T10:48:43.317Z,3.13
2019-05-23T10:51:13.547Z,2.40
2019-05-23T10:53:43.672Z,3.33
2019-05-23T10:56:20.302Z,2.80
2019-05-23T10:58:48.382Z,2.73
2019-05-23T11:01:18.958Z,2.47
2019-05-23T11:03:49.161Z,2.80
2019-05-23T11:06:19.956Z,3.03
2019-05-23T11:08:50.376Z,2.63
2019-05-23T11:11:21.045Z,2.20
2019-05-23T11:13:51.253Z,2.90
2019-05-23T11:16:22.247Z,2.97
2019-05-23T11:18:52.537Z,2.93
2019-05-23T11:21:22.824Z,2.83
2019-05-23T11:23:54.621Z,2.80
2019-05-23T11:26:24.854Z,3.10
2019-05-23T11:28:55.224Z,2.70
2019-05-23T11:31:26.181Z,2.80
2019-05-23T11:33:56.500Z,3.03
2019-05-23T11:36:35.583Z,3.13
2019-05-23T11:38:58.666Z,2.77
2019-05-23T11:41:29.374Z,2.60
2019-05-23T11:43:59.832Z,2.97
2019-05-23T11:46:32.675Z,2.97
2019-05-23T11:49:03.182Z,3.07
2019-05-23T11:51:34.400Z,3.77
2019-05-23T11:54:09.071Z,3.27
2019-05-23T11:56:38.701Z,2.93
2019-05-23T11:59:09.767Z,2.75
2019-05-23T12:02:05.229Z,3.10
2019-05-23T12:04:42.994Z,3.10
2019-05-23T12:07:24.238Z,2.83
2019-05-23T12:09:54.393Z,2.42
2019-05-23T12:12:25.286Z,2.80
2019-05-23T12:14:57.075Z,2.42
2019-05-23T12:17:30.818Z,2.70
2019-05-23T12:20:00.951Z,2.43
2019-05-23T12:22:31.718Z,2.83
2019-05-23T12:25:20.201Z,2.40
2019-05-23T12:27:33.946Z,2.63
2019-05-23T12:30:06.061Z,2.37
2019-05-23T12:32:37.811Z,2.60
2019-05-23T12:35:11.241Z,3.00
2019-05-23T12:37:40.154Z,2.60
2019-05-23T12:40:11.691Z,2.80
2019-05-23T12:42:42.012Z,2.50
2019-05-23T12:45:12.653Z,2.40
2019-05-23T12:47:56.944Z,3.07
2019-05-23T12:50:30.919Z,2.90
2019-05-23T12:53:01.099Z,2.83
2019-05-23T12:55:31.614Z,2.90
2019-05-23T12:58:02.013Z,3.62
2019-05-23T13:00:41.879Z,2.80
2019-05-23T13:03:14.088Z,3.40
2019-05-23T13:05:48.323Z,3.10
2019-05-23T13:08:18.953Z,3.00
2019-05-23T13:10:48.996Z,2.93
2019-05-23T13:13:19.268Z,2.80
2019-05-23T13:15:49.398Z,3.73
2019-05-23T13:18:19.517Z,4.10
2019-05-23T13:20:49.855Z,3.40
2019-05-23T13:23:24.401Z,3.80
2019-05-23T13:25:54.570Z,4.10
2019-05-23T13:28:24.983Z,3.60
2019-05-23T13:30:55.062Z,3.60
2019-05-23T13:33:26.309Z,3.75
2019-05-23T13:35:56.490Z,4.80
2019-05-23T13:38:28.607Z,4.15
2019-05-23T13:40:58.717Z,4.58
2019-05-23T13:43:29.278Z,3.98
2019-05-23T13:45:59.900Z,5.20
2019-05-23T13:48:30.220Z,5.30
2019-05-23T13:51:00.705Z,5.03
2019-05-23T13:53:32.548Z,4.95
2019-05-23T13:56:02.767Z,4.87
2019-05-23T13:58:33.097Z,4.72
2019-05-23T14:01:08.770Z,5.33
2019-05-23T14:03:36.678Z,4.53
2019-05-23T14:06:08.716Z,5.47
2019-05-23T14:08:38.910Z,4.78
2019-05-23T14:11:10.039Z,5.00
2019-05-23T14:13:40.281Z,5.12
2019-05-23T14:16:10.519Z,4.40
2019-05-23T14:18:40.884Z,4.70
2019-05-23T14:21:11.039Z,4.47
2019-05-23T14:23:41.109Z,5.22
2019-05-23T14:26:12.299Z,4.70
2019-05-23T14:28:42.886Z,5.90
2019-05-23T14:31:15.172Z,4.75
2019-05-23T14:33:48.111Z,5.10
2019-05-23T14:36:24.102Z,4.67
2019-05-23T14:38:56.619Z,4.30
2019-05-23T14:41:44.140Z,3.72
2019-05-23T14:44:00.175Z,4.55
2019-05-23T14:46:34.558Z,4.22
2019-05-23T14:49:26.202Z,5.10
2019-05-23T14:52:10.788Z,4.70
2019-05-23T14:54:43.675Z,3.67
2019-05-23T14:57:14.336Z,3.90
2019-05-23T14:59:44.437Z,3.60
2019-05-23T15:02:18.286Z,3.77
2019-05-23T15:04:58.742Z,3.10
2019-05-23T15:07:29.238Z,3.50
2019-05-23T15:09:59.451Z,3.72
2019-05-23T15:12:29.688Z,3.62
2019-05-23T15:15:00.007Z,3.85
2019-05-23T15:17:30.243Z,3.45
2019-05-23T15:20:00.369Z,3.47
2019-05-23T15:22:31.706Z,3.42
2019-05-23T15:25:01.949Z,2.92
2019-05-23T15:27:33.224Z,3.85
2019-05-23T15:30:04.480Z,3.80
2019-05-23T15:32:35.150Z,3.30
2019-05-23T15:35:05.865Z,3.58
2019-05-23T15:37:36.041Z,3.10
2019-05-23T15:40:10.966Z,3.27
2019-05-23T15:42:43.244Z,2.70
2019-05-23T15:45:14.052Z,3.15
2019-05-23T15:47:44.319Z,3.92
2019-05-23T15:50:17.356Z,3.40
2019-05-23T15:52:56.143Z,4.50
2019-05-23T15:55:33.848Z,3.83
2019-05-23T15:58:14.799Z,3.40
2019-05-23T16:01:19.381Z,3.90
2019-05-23T16:03:53.089Z,3.60
2019-05-23T16:06:25.067Z,4.08
2019-05-23T16:08:55.436Z,3.37
2019-05-23T16:11:25.984Z,3.08
2019-05-23T16:13:56.877Z,3.30
2019-05-23T16:16:27.795Z,3.30
2019-05-23T16:18:58.324Z,3.47
2019-05-23T16:21:30.071Z,3.22
2019-05-23T16:24:01.204Z,3.10
2019-05-23T16:26:31.572Z,3.27
2019-05-23T16:29:01.693Z,3.10
2019-05-23T16:31:32.451Z,3.15
2019-05-23T16:34:02.756Z,3.12
2019-05-23T16:36:32.979Z,3.45
2019-05-23T16:39:03.610Z,3.83
2019-05-23T16:41:33.744Z,3.45
2019-05-23T16:44:04.300Z,2.90
2019-05-23T16:46:37.127Z,2.85
2019-05-23T16:49:07.340Z,2.83
2019-05-23T16:51:37.535Z,2.72
2019-05-23T16:54:07.577Z,2.52
2019-05-23T16:56:52.094Z,2.90
2019-05-23T16:59:28.355Z,2.85
2019-05-23T17:02:16.261Z,3.27
2019-05-23T17:05:16.389Z,3.35
2019-05-23T17:07:54.811Z,3.20
2019-05-23T17:10:34.572Z,3.50
2019-05-23T17:13:09.760Z,3.30
2019-05-23T17:15:57.648Z,3.65
2019-05-23T17:18:46.341Z,3.75
2019-05-23T17:21:33.664Z,4.10
2019-05-23T17:24:11.045Z,3.87
2019-05-23T17:26:52.109Z,3.22
2019-05-23T17:29:29.335Z,4.00
2019-05-23T17:31:59.623Z,3.50
2019-05-23T17:34:30.009Z,3.62
2019-05-23T17:37:00.327Z,3.72
2019-05-23T17:39:30.517Z,3.72
2019-05-23T17:42:00.763Z,3.37
2019-05-23T17:44:30.986Z,3.45
2019-05-23T17:47:01.085Z,3.40
2019-05-23T17:49:34.112Z,3.47
2019-05-23T17:52:05.565Z,3.42
2019-05-23T17:54:40.601Z,3.17
2019-05-23T17:57:11.504Z,3.10
2019-05-23T17:59:41.856Z,3.70
2019-05-23T18:02:15.855Z,2.77
2019-05-23T18:04:46.020Z,3.40
2019-05-23T18:07:17.013Z,3.15
2019-05-23T18:09:48.672Z,4.40
2019-05-23T18:12:19.155Z,3.90
2019-05-23T18:14:49.803Z,4.17
2019-05-23T18:17:20.217Z,3.37
2019-05-23T18:19:54.338Z,3.90
2019-05-23T18:22:25.293Z,3.20
2019-05-23T18:24:59.637Z,3.60
2019-05-23T18:27:27.797Z,3.83
2019-05-23T18:30:00.301Z,3.20
2019-05-23T18:32:31.350Z,3.57
2019-05-23T18:35:03.104Z,3.10
2019-05-23T18:37:33.371Z,3.10
2019-05-23T18:40:04.261Z,3.23
2019-05-23T18:42:34.912Z,2.73
2019-05-23T18:45:07.030Z,3.00
2019-05-23T18:47:40.785Z,2.83
2019-05-23T18:50:13.077Z,3.20
2019-05-23T18:52:44.415Z,2.90
2019-05-23T18:55:15.207Z,3.10
2019-05-23T18:57:46.109Z,3.03
2019-05-23T19:00:20.040Z,2.67
2019-05-23T19:02:51.195Z,3.20
2019-05-23T19:05:23.343Z,2.87
2019-05-23T19:07:57.117Z,2.70
2019-05-23T19:10:30.696Z,3.30
2019-05-23T19:13:01.884Z,2.87
2019-05-23T19:15:34.674Z,3.23
2019-05-23T19:18:09.147Z,3.07
2019-05-23T19:20:40.795Z,2.60
2019-05-23T19:23:14.254Z,3.00
2019-05-23T19:25:45.888Z,3.03
2019-05-23T19:28:17.860Z,2.77
2019-05-23T19:30:51.057Z,2.80
2019-05-23T19:33:26.093Z,3.00
2019-05-23T19:35:57.724Z,3.30
2019-05-23T19:38:29.487Z,3.27
2019-05-23T19:41:01.146Z,3.20
2019-05-23T19:43:35.892Z,2.97
2019-05-23T19:46:07.122Z,3.23
2019-05-23T19:48:39.829Z,3.10
2019-05-23T19:51:11.758Z,3.67
2019-05-23T19:53:42.734Z,3.70
2019-05-23T19:56:13.720Z,4.40
2019-05-23T19:58:44.142Z,4.70
2019-05-23T20:01:15.755Z,4.87
2019-05-23T20:03:47.955Z,4.50
2019-05-23T20:06:18.845Z,4.27
2019-05-23T20:08:49.809Z,4.50
2019-05-23T20:11:20.386Z,4.70
2019-05-23T20:13:50.775Z,4.60
2019-05-23T20:16:23.614Z,4.13
2019-05-23T20:18:53.671Z,4.10
2019-05-23T20:21:24.022Z,3.83
2019-05-23T20:23:54.172Z,4.27
2019-05-23T20:26:24.344Z,4.33
2019-05-23T20:28:54.565Z,3.70
2019-05-23T20:31:25.487Z,4.30
2019-05-23T20:33:55.617Z,4.03
2019-05-23T20:36:26.018Z,3.87
2019-05-23T20:38:56.219Z,3.90
2019-05-23T20:41:26.466Z,4.17
2019-05-23T20:43:56.678Z,3.73
2019-05-23T20:46:26.906Z,3.87
2019-05-23T20:48:57.270Z,4.87
2019-05-23T20:51:27.830Z,4.10
2019-05-23T20:53:58.112Z,4.60
2019-05-23T20:56:28.270Z,4.60
2019-05-23T20:59:01.521Z,4.40
2019-05-23T21:01:35.170Z,4.33
2019-05-23T21:04:06.101Z,5.10
2019-05-23T21:06:36.360Z,4.90
2019-05-23T21:09:08.413Z,4.77
2019-05-23T21:11:38.569Z,4.70
2019-05-23T21:14:08.923Z,4.60
2019-05-23T21:16:39.079Z,4.80
2019-05-23T21:19:09.200Z,4.80
2019-05-23T21:21:39.338Z,4.33
2019-05-23T21:24:09.670Z,4.80
2019-05-23T21:26:39.915Z,4.70
2019-05-23T21:29:10.298Z,4.80
2019-05-23T21:31:40.471Z,4.67
2019-05-23T21:34:10.682Z,5.50
2019-05-23T21:36:40.912Z,5.30
2019-05-23T21:39:13.027Z,5.17
2019-05-23T21:41:43.150Z,5.10
2019-05-23T21:44:13.289Z,5.00
2019-05-23T21:46:43.618Z,4.97
2019-05-23T21:49:13.690Z,5.53
2019-05-23T21:51:43.807Z,5.20
2019-05-23T21:54:14.125Z,5.23
2019-05-23T21:56:44.266Z,5.23
2019-05-23T21:59:14.328Z,5.13
2019-05-23T22:02:13.001Z,5.03
2019-05-23T22:05:11.924Z,4.97
2019-05-23T22:07:43.217Z,5.10
2019-05-23T22:10:13.748Z,5.00
2019-05-23T22:12:44.065Z,5.10
2019-05-23T22:15:18.008Z,5.23
2019-05-23T22:17:49.071Z,4.87
2019-05-23T22:20:19.426Z,5.20
2019-05-23T22:22:49.500Z,5.40
2019-05-23T22:25:31.673Z,4.97
2019-05-23T22:28:01.752Z,4.83
2019-05-23T22:30:31.866Z,4.70
2019-05-23T22:33:03.374Z,4.60
2019-05-23T22:35:35.726Z,4.43
2019-05-23T22:38:06.691Z,4.83
2019-05-23T22:40:38.646Z,4.13
2019-05-23T22:43:20.673Z,4.07
2019-05-23T22:45:41.078Z,4.13
2019-05-23T22:48:11.212Z,3.90
2019-05-23T22:50:41.323Z,4.17
2019-05-23T22:53:11.385Z,4.23
2019-05-23T22:55:41.415Z,4.40
2019-05-23T22:58:11.458Z,4.10
2019-05-23T23:00:43.580Z,4.10
2019-05-23T23:03:13.817Z,4.10
2019-05-23T23:05:43.981Z,4.20
2019-05-23T23:08:14.348Z,4.60
2019-05-23T23:10:44.561Z,3.93
2019-05-23T23:13:15.079Z,3.60
2019-05-23T23:15:45.284Z,4.10
2019-05-23T23:18:15.389Z,3.80
2019-05-23T23:20:46.214Z,4.40
2019-05-23T23:23:16.579Z,4.43
2019-05-23T23:25:46.948Z,4.27
2019-05-23T23:28:17.053Z,4.20
2019-05-23T23:30:48.583Z,4.30
2019-05-23T23:33:18.761Z,4.30
2019-05-23T23:35:48.849Z,4.10
2019-05-23T23:38:19.035Z,3.93
2019-05-23T23:40:49.196Z,4.67
2019-05-23T23:43:19.433Z,4.20
2019-05-23T23:46:07.173Z,3.90
2019-05-23T23:48:54.985Z,4.37
2019-05-23T23:51:42.764Z,4.10
2019-05-23T23:54:30.815Z,4.07
2019-05-23T23:57:19.151Z,4.03
2019-05-23T23:59:48.436Z,4.23
